createdAt,value
2023-04-06T12:57:11.755Z,6.00
2023-04-06T12:59:50.719Z,6.00
2023-04-06T20:20:56.479Z,2.10
2023-04-06T20:23:32.377Z,2.10
2023-04-06T20:26:01.023Z,2.10
2023-04-06T20:28:31.235Z,2.00
2023-04-06T20:30:58.227Z,2.20
2023-04-06T20:33:29.369Z,2.00
2023-04-06T20:36:01.079Z,2.10
2023-04-06T20:41:00.294Z,2.00
2023-04-06T20:43:30.440Z,2.00
2023-04-06T20:45:59.068Z,2.00
2023-04-06T20:48:37.245Z,1.90
2023-04-06T20:51:05.941Z,1.90
2023-04-06T20:53:35.798Z,1.90
2023-04-06T20:56:08.378Z,1.90
2023-04-06T20:58:35.416Z,1.80
2023-04-06T21:01:02.563Z,1.80
2023-04-06T21:03:33.543Z,1.90
2023-04-06T21:06:03.697Z,1.90
2023-04-06T21:08:31.576Z,1.90
2023-04-06T21:11:00.816Z,1.90
2023-04-06T21:13:30.535Z,1.90
2023-04-06T21:18:35.591Z,1.90
2023-04-06T21:21:02.661Z,1.80
2023-04-06T21:23:29.761Z,1.90
2023-04-06T21:26:00.124Z,1.90
2023-04-06T21:28:30.776Z,1.70
2023-04-06T21:31:05.241Z,1.70
2023-04-06T21:33:36.224Z,1.80
2023-04-06T21:36:09.480Z,1.80
2023-04-06T21:38:36.514Z,1.70
2023-04-06T21:41:07.254Z,1.70
2023-04-06T21:43:35.893Z,1.80
2023-04-06T21:46:06.127Z,1.60
2023-04-06T21:51:07.554Z,1.80
2023-04-06T21:53:35.064Z,1.80
2023-04-06T21:58:46.548Z,1.70
2023-04-06T22:01:13.671Z,1.60
2023-04-06T22:03:41.307Z,1.50
2023-04-06T22:06:08.509Z,1.50
2023-04-06T22:08:35.528Z,1.50
2023-04-06T22:11:08.816Z,1.50
2023-04-06T22:13:36.248Z,1.60
2023-04-06T22:16:04.139Z,1.70
2023-04-06T22:18:47.572Z,1.50
2023-04-06T22:21:14.579Z,1.50
2023-04-06T22:23:42.562Z,1.50
2023-04-06T22:26:11.434Z,1.50
2023-04-06T22:28:38.567Z,1.50
2023-04-06T22:31:05.729Z,1.50
2023-04-06T22:33:32.836Z,1.50
2023-04-06T22:35:59.921Z,1.50
2023-04-06T22:38:26.979Z,1.50
2023-04-06T22:40:54.275Z,1.40
2023-04-06T22:43:21.271Z,1.50
2023-04-06T22:45:48.217Z,1.40
2023-04-06T22:48:15.277Z,1.40
2023-04-06T22:50:42.297Z,1.40
2023-04-06T22:53:09.229Z,1.50
2023-04-06T22:55:39.162Z,1.50
2023-04-06T22:58:06.505Z,1.40
2023-04-06T23:00:33.541Z,1.50
2023-04-06T23:03:01.685Z,1.50
2023-04-06T23:05:28.805Z,1.40
2023-04-06T23:07:55.720Z,1.40
2023-04-06T23:10:22.883Z,1.50
2023-04-06T23:12:49.814Z,1.60
2023-04-06T23:15:16.945Z,1.50
2023-04-06T23:17:44.065Z,1.50
2023-04-06T23:20:11.522Z,1.60
2023-04-06T23:22:38.784Z,1.60
2023-04-06T23:25:07.781Z,1.60
2023-04-06T23:27:34.765Z,1.70
2023-04-06T23:30:01.789Z,1.70
2023-04-06T23:32:28.987Z,1.70
2023-04-06T23:34:56.138Z,1.70
2023-04-06T23:37:23.307Z,1.60
2023-04-06T23:39:50.507Z,1.60
2023-04-06T23:42:17.463Z,1.60
2023-04-06T23:44:44.728Z,1.60
2023-04-06T23:47:12.171Z,1.50
2023-04-06T23:49:39.205Z,1.60
2023-04-06T23:52:06.273Z,1.70
2023-04-06T23:55:01.097Z,1.70
